Time;durP1;ratioP1;P1;durP2;ratioP2;P2;SDS_P1;SDS_P2;PMS_P1;PMS_P2;Temp;Humidity;BMP_temperature;BMP_pressure;BME280_temperature;BME280_humidity;BME280_pressure;Samples;Min_cycle;Max_cycle;Signal;HPM_P1;HPM_P2
2022/02/18 00:00:56;;;;;;;19.67;3.53;;;8.40;99.90;;;;;;5009972;28;20482;-84
2022/02/18 00:03:23;;;;;;;21.85;3.53;;;8.40;99.90;;;;;;4995156;28;20027;-85
2022/02/18 00:05:48;;;;;;;19.00;3.50;;;8.40;99.90;;;;;;4993732;28;20026;-85
2022/02/18 00:08:14;;;;;;;20.88;3.60;;;8.40;99.90;;;;;;4993415;28;20133;-85
2022/02/18 00:10:41;;;;;;;16.10;3.55;;;8.40;99.90;;;;;;4994594;28;20053;-84
2022/02/18 00:13:07;;;;;;;18.52;2.95;;;8.40;99.90;;;;;;4994576;28;20030;-85
2022/02/18 00:15:33;;;;;;;19.75;3.20;;;8.40;99.90;;;;;;4994315;28;20029;-85
2022/02/18 00:18:02;;;;;;;27.40;4.60;;;8.40;99.90;;;;;;4994156;28;20062;-86
2022/02/18 00:20:29;;;;;;;23.42;3.45;;;8.40;99.90;;;;;;4993367;28;20030;-85
2022/02/18 00:22:55;;;;;;;19.35;2.95;;;8.40;99.90;;;;;;4977134;28;20038;-85
2022/02/18 00:25:21;;;;;;;15.25;3.35;;;8.50;99.90;;;;;;5008773;28;20442;-85
2022/02/18 00:27:46;;;;;;;21.33;3.42;;;8.40;99.90;;;;;;4993347;28;20379;-85
2022/02/18 00:30:12;;;;;;;19.50;3.25;;;8.50;99.90;;;;;;4994329;28;20034;-85
2022/02/18 00:32:39;;;;;;;17.92;3.28;;;8.40;99.90;;;;;;4992874;28;20038;-84
2022/02/18 00:35:05;;;;;;;19.02;3.63;;;8.40;99.90;;;;;;4977058;28;20042;-84
2022/02/18 00:37:32;;;;;;;18.67;3.10;;;8.40;99.90;;;;;;5009319;28;20102;-85
2022/02/18 00:39:57;;;;;;;17.83;3.17;;;8.40;99.90;;;;;;5009167;28;20063;-85
2022/02/18 00:42:24;;;;;;;14.88;3.38;;;8.40;99.90;;;;;;4992748;28;20038;-85
2022/02/18 00:44:50;;;;;;;18.77;4.25;;;8.40;99.90;;;;;;4993721;28;20038;-85
2022/02/18 00:47:15;;;;;;;19.77;4.15;;;8.40;99.90;;;;;;4976396;28;20050;-84
2022/02/18 00:49:41;;;;;;;19.40;3.10;;;8.40;99.90;;;;;;4992912;28;20049;-85
2022/02/18 00:52:07;;;;;;;18.27;3.17;;;8.40;99.90;;;;;;4992558;28;20030;-85
2022/02/18 00:54:33;;;;;;;23.95;3.40;;;8.40;99.90;;;;;;4993895;28;20030;-86
2022/02/18 00:56:58;;;;;;;17.42;3.60;;;8.40;99.90;;;;;;4992698;28;20426;-85
2022/02/18 00:59:24;;;;;;;23.23;3.60;;;8.40;99.90;;;;;;4992573;28;20046;-85
2022/02/18 01:01:50;;;;;;;17.63;3.70;;;8.40;99.90;;;;;;4976243;28;20332;-85
2022/02/18 01:04:16;;;;;;;23.00;3.85;;;8.40;99.90;;;;;;4993727;28;20049;-84
2022/02/18 01:06:42;;;;;;;13.80;3.10;;;8.40;99.90;;;;;;4992703;28;20038;-84
2022/02/18 01:09:08;;;;;;;17.50;3.25;;;8.40;99.90;;;;;;4993346;28;20426;-85
2022/02/18 01:11:34;;;;;;;17.98;3.60;;;8.40;99.90;;;;;;4993465;28;20039;-85
2022/02/18 01:14:00;;;;;;;16.90;2.97;;;8.40;99.90;;;;;;5008891;28;20034;-85
2022/02/18 01:16:27;;;;;;;15.68;2.70;;;8.40;99.90;;;;;;4993738;28;20039;-85
2022/02/18 01:18:53;;;;;;;18.77;3.88;;;8.40;99.90;;;;;;4992792;28;20121;-84
2022/02/18 01:21:19;;;;;;;23.30;4.07;;;8.40;99.90;;;;;;4975950;28;20133;-84
2022/02/18 01:23:45;;;;;;;16.75;3.00;;;8.40;99.90;;;;;;4992681;28;20463;-85
2022/02/18 01:26:11;;;;;;;20.75;3.45;;;8.40;99.90;;;;;;4975611;28;20054;-85
2022/02/18 01:28:36;;;;;;;16.52;2.75;;;8.40;99.90;;;;;;4976457;28;20034;-85
2022/02/18 01:31:03;;;;;;;17.52;3.55;;;8.40;99.90;;;;;;4976417;28;20456;-85
2022/02/18 01:33:28;;;;;;;22.05;3.72;;;8.40;99.90;;;;;;4992844;28;20034;-85
2022/02/18 01:35:54;;;;;;;19.20;3.83;;;8.40;99.90;;;;;;4976421;28;20038;-84
2022/02/18 01:38:20;;;;;;;18.52;3.35;;;8.40;99.90;;;;;;5008664;28;20035;-85
2022/02/18 01:40:46;;;;;;;17.38;3.17;;;8.40;99.90;;;;;;4992140;28;20053;-85
2022/02/18 01:43:12;;;;;;;15.27;3.28;;;8.40;99.90;;;;;;4980411;28;20081;-85
2022/02/18 01:45:37;;;;;;;16.42;3.03;;;8.40;99.90;;;;;;4999623;28;20041;-85
2022/02/18 01:48:04;;;;;;;20.05;3.35;;;8.40;99.90;;;;;;5013903;28;20019;-85
2022/02/18 01:50:29;;;;;;;14.05;2.88;;;8.40;99.90;;;;;;4998472;28;20046;-85
2022/02/18 01:52:56;;;;;;;26.52;6.82;;;8.40;99.90;;;;;;4998918;28;20030;-85
2022/02/18 01:55:23;;;;;;;14.68;3.15;;;8.30;99.90;;;;;;5004770;28;20027;-84
2022/02/18 01:57:51;;;;;;;12.38;2.55;;;8.40;99.90;;;;;;5017378;28;20095;-85
2022/02/18 02:00:21;;;;;;;13.98;2.55;;;8.30;99.90;;;;;;5007495;28;20418;-85
2022/02/18 02:02:48;;;;;;;16.80;3.17;;;8.40;99.90;;;;;;4994153;28;20060;-84
2022/02/18 02:05:14;;;;;;;14.00;2.85;;;8.30;99.90;;;;;;4997029;28;20129;-85
2022/02/18 02:07:41;;;;;;;15.15;3.25;;;8.30;99.90;;;;;;4996341;28;20062;-85
2022/02/18 02:10:08;;;;;;;16.65;3.85;;;8.30;99.90;;;;;;4993082;28;20030;-85
2022/02/18 02:12:43;;;;;;;14.48;2.75;;;8.30;99.90;;;;;;5015264;28;20038;-85
2022/02/18 02:15:10;;;;;;;17.95;3.15;;;8.30;99.90;;;;;;5015280;28;20169;-85
2022/02/18 02:17:36;;;;;;;14.25;2.65;;;8.20;99.90;;;;;;5015122;28;20466;-85
2022/02/18 02:20:04;;;;;;;17.48;3.80;;;8.20;99.90;;;;;;5015057;28;20099;-85
2022/02/18 02:22:30;;;;;;;18.05;4.10;;;8.20;99.90;;;;;;5016226;28;20121;-84
2022/02/18 02:24:57;;;;;;;20.85;2.95;;;8.20;99.90;;;;;;5016372;28;20161;-85
2022/02/18 02:27:23;;;;;;;14.40;2.80;;;8.20;99.90;;;;;;5014780;28;20499;-85
2022/02/18 02:29:50;;;;;;;15.18;2.90;;;8.20;99.90;;;;;;5014977;28;20059;-85
2022/02/18 02:32:16;;;;;;;19.45;3.28;;;8.20;99.90;;;;;;5014608;28;20042;-84
2022/02/18 02:34:42;;;;;;;20.98;3.45;;;8.20;99.90;;;;;;5016232;28;20356;-85
2022/02/18 02:37:08;;;;;;;16.50;3.20;;;8.20;99.90;;;;;;4998465;28;20485;-84
2022/02/18 02:39:34;;;;;;;17.13;4.30;;;8.20;99.90;;;;;;5014697;28;20048;-85
2022/02/18 02:42:00;;;;;;;19.92;3.67;;;8.20;99.90;;;;;;4998325;28;20034;-85
2022/02/18 02:44:27;;;;;;;23.13;3.78;;;8.20;99.90;;;;;;5015717;28;20034;-85
2022/02/18 02:46:53;;;;;;;22.85;4.63;;;8.20;99.90;;;;;;4982023;28;20068;-85
2022/02/18 02:49:19;;;;;;;16.88;4.18;;;8.20;99.90;;;;;;5013913;28;20042;-85
2022/02/18 02:51:44;;;;;;;19.60;4.38;;;8.20;99.90;;;;;;5015449;28;20427;-84
2022/02/18 02:54:10;;;;;;;18.33;3.88;;;8.20;99.90;;;;;;4981931;28;20117;-85
2022/02/18 02:56:36;;;;;;;23.73;4.28;;;8.20;99.90;;;;;;4997577;28;20048;-84
2022/02/18 02:59:01;;;;;;;21.98;5.25;;;8.20;99.90;;;;;;5014382;28;20034;-85
2022/02/18 03:01:27;;;;;;;22.52;4.63;;;8.20;99.90;;;;;;5013453;28;20381;-85
2022/02/18 03:03:53;;;;;;;17.80;4.47;;;8.20;99.90;;;;;;4997495;28;20030;-85
2022/02/18 03:06:18;;;;;;;22.63;4.75;;;8.20;99.90;;;;;;5010850;28;20033;-84
2022/02/18 03:08:44;;;;;;;18.95;3.85;;;8.20;99.90;;;;;;4995867;28;20038;-84
2022/02/18 03:11:16;;;;;;;17.55;4.55;;;8.20;99.90;;;;;;4978591;28;20114;-85
2022/02/18 03:13:43;;;;;;;19.17;4.63;;;8.20;99.90;;;;;;4994831;28;20050;-84
2022/02/18 03:16:09;;;;;;;29.08;4.70;;;8.20;99.90;;;;;;4994582;28;20037;-84
2022/02/18 03:18:34;;;;;;;22.55;4.32;;;8.20;99.90;;;;;;4978296;28;20050;-85
2022/02/18 03:21:00;;;;;;;23.60;3.83;;;8.20;99.90;;;;;;4978503;28;20026;-84
2022/02/18 03:23:26;;;;;;;23.85;3.75;;;8.20;99.90;;;;;;4995075;28;20037;-85
2022/02/18 03:25:51;;;;;;;21.05;3.75;;;8.20;99.90;;;;;;4995382;28;20043;-84
2022/02/18 03:28:17;;;;;;;25.98;4.22;;;8.20;99.90;;;;;;4995343;28;20034;-85
2022/02/18 03:30:43;;;;;;;25.45;4.30;;;8.20;99.90;;;;;;4978048;28;20042;-85
2022/02/18 03:33:11;;;;;;;19.48;3.88;;;8.20;99.90;;;;;;4978017;28;20117;-85
2022/02/18 03:35:40;;;;;;;16.85;4.13;;;8.20;99.90;;;;;;4993980;28;20027;-84
2022/02/18 03:38:06;;;;;;;23.20;4.25;;;8.20;99.90;;;;;;4962155;28;20452;-84
2022/02/18 03:40:33;;;;;;;22.55;4.10;;;8.20;99.90;;;;;;4977470;28;20027;-85
2022/02/18 03:42:59;;;;;;;21.70;3.88;;;8.10;99.90;;;;;;4978253;28;20490;-84
2022/02/18 03:45:26;;;;;;;19.00;3.50;;;8.10;99.90;;;;;;4993897;28;20030;-84
2022/02/18 03:47:52;;;;;;;20.08;3.95;;;8.10;99.90;;;;;;4977775;28;20092;-85
2022/02/18 03:50:18;;;;;;;27.50;4.45;;;8.10;99.90;;;;;;4995444;28;20039;-85
2022/02/18 03:52:44;;;;;;;16.55;3.53;;;8.10;99.90;;;;;;4995476;28;20038;-85
2022/02/18 03:55:10;;;;;;;20.15;4.05;;;8.10;99.90;;;;;;4977551;28;20034;-85
2022/02/18 03:57:36;;;;;;;22.38;4.68;;;8.10;99.90;;;;;;4977081;28;20038;-84
2022/02/18 04:00:07;;;;;;;27.95;4.65;;;8.10;99.90;;;;;;4994768;28;20041;-84
2022/02/18 04:02:33;;;;;;;27.48;4.10;;;8.10;99.90;;;;;;4993677;28;20459;-85
2022/02/18 04:04:59;;;;;;;25.02;4.70;;;8.20;99.90;;;;;;4993672;28;20089;-84
2022/02/18 04:07:24;;;;;;;29.48;4.55;;;8.20;99.90;;;;;;4977158;28;20376;-84
2022/02/18 04:09:50;;;;;;;24.00;3.83;;;8.20;99.90;;;;;;4977203;28;20041;-84
2022/02/18 04:12:16;;;;;;;21.23;4.72;;;8.10;99.90;;;;;;4977003;28;20042;-85
2022/02/18 04:14:42;;;;;;;30.77;5.22;;;8.10;99.90;;;;;;4994414;28;20031;-84
2022/02/18 04:17:07;;;;;;;34.78;5.63;;;8.20;99.90;;;;;;4994332;28;20360;-84
2022/02/18 04:19:33;;;;;;;30.77;4.32;;;8.10;99.90;;;;;;4976915;28;20039;-85
2022/02/18 04:22:02;;;;;;;29.45;4.80;;;8.10;99.90;;;;;;4993269;28;20033;-85
2022/02/18 04:24:28;;;;;;;25.58;4.28;;;8.10;99.90;;;;;;4993102;28;20104;-84
2022/02/18 04:26:54;;;;;;;23.75;3.55;;;8.10;99.90;;;;;;4976369;28;20082;-84
2022/02/18 04:29:19;;;;;;;27.60;3.88;;;8.10;99.90;;;;;;4992986;28;20046;-84
2022/02/18 04:31:45;;;;;;;34.58;6.22;;;8.10;99.90;;;;;;4993945;28;20034;-85
2022/02/18 04:34:10;;;;;;;23.10;4.32;;;8.10;99.90;;;;;;4976802;28;20462;-84
2022/02/18 04:36:36;;;;;;;31.05;4.90;;;8.20;99.90;;;;;;4993874;28;20034;-85
2022/02/18 04:39:02;;;;;;;35.20;5.53;;;8.10;99.90;;;;;;4993000;28;20041;-84
2022/02/18 04:41:28;;;;;;;32.83;5.00;;;8.10;99.90;;;;;;4994188;28;20039;-85
2022/02/18 04:43:53;;;;;;;36.60;5.15;;;8.20;99.90;;;;;;4976193;28;20122;-84
2022/02/18 04:46:19;;;;;;;32.97;4.65;;;8.10;99.90;;;;;;4993915;28;20041;-84
2022/02/18 04:48:45;;;;;;;32.78;4.70;;;8.20;99.90;;;;;;4992502;28;20448;-84
2022/02/18 04:51:10;;;;;;;27.73;4.25;;;8.10;99.90;;;;;;5008603;28;20049;-85
2022/02/18 04:53:37;;;;;;;28.15;4.90;;;8.10;99.90;;;;;;4975503;28;20034;-84
2022/02/18 04:56:09;;;;;;;35.72;4.53;;;8.20;99.90;;;;;;4992801;28;20030;-84
2022/02/18 04:58:36;;;;;;;29.33;5.10;;;8.20;99.90;;;;;;4992782;28;20054;-84
2022/02/18 05:01:09;;;;;;;31.05;4.68;;;8.20;99.90;;;;;;4976766;28;20129;-84
2022/02/18 05:03:35;;;;;;;30.13;4.53;;;8.10;99.90;;;;;;5009039;28;20046;-84
2022/02/18 05:06:02;;;;;;;34.13;4.28;;;8.10;99.90;;;;;;4992894;28;20153;-84
2022/02/18 05:08:28;;;;;;;33.72;5.47;;;8.10;99.90;;;;;;4992360;28;20035;-85
2022/02/18 05:10:54;;;;;;;23.25;4.40;;;8.10;99.90;;;;;;4961229;28;20035;-84
2022/02/18 05:13:20;;;;;;;27.67;5.25;;;8.10;99.90;;;;;;4995571;28;20035;-84
2022/02/18 05:15:47;;;;;;;37.42;5.10;;;8.10;99.90;;;;;;4997867;28;20501;-84
2022/02/18 05:18:13;;;;;;;26.85;4.78;;;8.20;99.90;;;;;;5030188;28;20105;-84
2022/02/18 05:20:39;;;;;;;31.90;5.05;;;8.20;99.90;;;;;;5000168;28;20019;-84
2022/02/18 05:23:04;;;;;;;29.05;4.72;;;8.20;99.90;;;;;;4999541;28;20061;-84
2022/02/18 05:25:31;;;;;;;34.97;5.80;;;8.20;99.90;;;;;;4999979;28;20034;-86
2022/02/18 05:28:07;;;;;;;24.77;4.72;;;8.20;99.90;;;;;;5032179;28;20034;-85
2022/02/18 05:30:34;;;;;;;27.88;4.53;;;8.20;99.90;;;;;;4999897;28;20026;-85
2022/02/18 05:33:00;;;;;;;28.60;4.85;;;8.10;99.90;;;;;;4993921;28;20041;-84
2022/02/18 05:35:26;;;;;;;23.85;4.72;;;8.20;99.90;;;;;;4959834;28;20030;-84
2022/02/18 05:37:52;;;;;;;31.70;5.18;;;8.30;99.90;;;;;;4975962;28;20038;-84
2022/02/18 05:40:17;;;;;;;30.17;5.15;;;8.20;99.90;;;;;;4980300;28;20049;-84
2022/02/18 05:42:43;;;;;;;32.15;6.25;;;8.20;99.90;;;;;;4979771;28;20026;-84
2022/02/18 05:45:09;;;;;;;30.17;4.88;;;8.20;99.90;;;;;;4980126;28;20045;-85
2022/02/18 05:47:36;;;;;;;26.77;4.82;;;8.20;99.90;;;;;;4995965;28;20418;-84
2022/02/18 05:50:10;;;;;;;36.25;6.15;;;8.20;99.90;;;;;;4996338;28;20058;-85
2022/02/18 05:52:36;;;;;;;27.50;5.10;;;8.20;99.90;;;;;;4997266;28;20026;-84
2022/02/18 05:55:03;;;;;;;26.92;5.85;;;8.30;99.90;;;;;;5005580;28;20378;-84
2022/02/18 05:57:29;;;;;;;31.90;5.32;;;8.30;99.90;;;;;;5012844;28;20040;-85
2022/02/18 05:59:55;;;;;;;24.38;4.70;;;8.30;99.90;;;;;;4998218;28;20426;-85
2022/02/18 06:02:20;;;;;;;20.98;4.07;;;8.30;99.90;;;;;;4997644;28;20121;-84
2022/02/18 06:04:46;;;;;;;27.70;4.60;;;8.30;99.90;;;;;;5021555;28;20048;-84
2022/02/18 06:07:11;;;;;;;25.63;4.15;;;8.30;99.90;;;;;;4971112;28;20100;-84
2022/02/18 06:09:37;;;;;;;26.63;4.50;;;8.30;99.90;;;;;;5014053;28;20096;-84
2022/02/18 06:12:03;;;;;;;28.45;4.28;;;8.30;99.90;;;;;;5015475;28;20030;-84
2022/02/18 06:14:29;;;;;;;24.38;5.28;;;8.30;99.90;;;;;;5017841;28;20062;-84
2022/02/18 06:16:54;;;;;;;28.02;4.20;;;8.30;99.90;;;;;;5003844;28;20034;-84
2022/02/18 06:19:20;;;;;;;28.23;3.75;;;8.30;99.90;;;;;;5018622;28;20479;-85
2022/02/18 06:21:46;;;;;;;22.77;3.92;;;8.30;99.90;;;;;;4988399;28;20037;-84
2022/02/18 06:24:13;;;;;;;25.50;4.72;;;8.30;99.90;;;;;;5019062;28;20034;-84
2022/02/18 06:26:39;;;;;;;27.15;4.55;;;8.30;99.90;;;;;;5016613;28;20497;-85
2022/02/18 06:29:04;;;;;;;25.50;4.43;;;8.30;99.90;;;;;;5017393;28;20033;-83
2022/02/18 06:31:30;;;;;;;30.02;4.32;;;8.30;99.90;;;;;;5002348;28;20060;-83
2022/02/18 06:33:56;;;;;;;31.73;4.40;;;8.30;99.90;;;;;;5002868;28;20034;-84
2022/02/18 06:36:51;;;;;;;25.63;3.95;;;8.30;99.90;;;;;;4993424;28;20558;-83
2022/02/18 06:39:20;;;;;;;22.45;4.07;;;8.30;99.90;;;;;;5011952;28;20038;-85
2022/02/18 06:41:47;;;;;;;24.70;3.65;;;8.40;99.90;;;;;;5013543;28;20030;-86
2022/02/18 06:44:13;;;;;;;26.83;4.13;;;8.30;99.90;;;;;;5015640;28;20111;-85
2022/02/18 06:46:39;;;;;;;29.88;5.07;;;8.30;99.90;;;;;;5014792;28;20470;-84
2022/02/18 06:49:04;;;;;;;21.35;3.58;;;8.30;99.90;;;;;;4975889;28;20096;-84
2022/02/18 06:51:33;;;;;;;30.05;4.38;;;8.40;99.90;;;;;;4978168;28;20026;-84
2022/02/18 06:53:59;;;;;;;24.23;4.05;;;8.30;99.90;;;;;;4994668;28;20029;-84
2022/02/18 06:56:24;;;;;;;21.88;3.90;;;8.30;99.90;;;;;;4971826;28;20030;-84
2022/02/18 06:58:52;;;;;;;22.83;3.67;;;8.30;99.90;;;;;;5019049;28;20370;-84
2022/02/18 07:01:18;;;;;;;21.10;3.63;;;8.20;99.90;;;;;;5011287;28;20120;-84
2022/02/18 07:03:44;;;;;;;36.80;4.55;;;8.20;99.90;;;;;;4997688;28;20114;-84
2022/02/18 07:06:09;;;;;;;27.20;4.13;;;8.20;99.90;;;;;;4978289;28;20436;-85
2022/02/18 07:08:35;;;;;;;34.42;4.43;;;8.20;99.90;;;;;;4995996;28;20034;-84
2022/02/18 07:11:01;;;;;;;27.83;3.85;;;8.10;99.90;;;;;;4978347;28;20039;-84
2022/02/18 07:13:26;;;;;;;31.77;5.43;;;8.20;99.90;;;;;;4978598;28;20077;-83
2022/02/18 07:15:52;;;;;;;25.38;4.47;;;8.20;99.90;;;;;;4995663;28;20026;-84
2022/02/18 07:18:18;;;;;;;22.30;3.83;;;8.20;99.90;;;;;;4962337;28;20038;-83
2022/02/18 07:20:46;;;;;;;15.00;3.47;;;8.10;99.90;;;;;;4962204;28;20423;-83
2022/02/18 07:23:11;;;;;;;23.23;4.03;;;8.20;99.90;;;;;;5010364;28;20022;-84
2022/02/18 07:25:37;;;;;;;24.27;3.78;;;8.20;99.90;;;;;;4977871;28;20070;-85
2022/02/18 07:28:03;;;;;;;17.20;3.45;;;8.20;99.90;;;;;;4994275;28;20058;-86
2022/02/18 07:30:29;;;;;;;19.67;3.92;;;8.20;99.90;;;;;;4997491;28;20099;-83
2022/02/18 07:32:54;;;;;;;27.90;4.28;;;8.20;99.90;;;;;;4994967;28;20041;-83
2022/02/18 07:35:20;;;;;;;27.40;4.32;;;8.20;99.90;;;;;;5010409;28;20144;-83
2022/02/18 07:37:49;;;;;;;21.63;5.00;;;8.20;99.90;;;;;;4996538;28;20034;-84
2022/02/18 07:40:15;;;;;;;22.35;3.10;;;8.20;99.90;;;;;;5014514;28;20061;-83
2022/02/18 07:42:43;;;;;;;30.17;4.43;;;8.30;99.90;;;;;;4996818;28;20030;-83
2022/02/18 07:45:10;;;;;;;20.40;3.78;;;8.20;99.90;;;;;;5013590;28;20076;-87
2022/02/18 07:47:36;;;;;;;23.10;4.90;;;8.30;99.90;;;;;;5013641;28;20033;-88
2022/02/18 07:50:03;;;;;;;25.05;5.10;;;8.30;99.90;;;;;;5015199;28;20037;-87
2022/02/18 07:52:28;;;;;;;20.17;4.55;;;8.30;99.90;;;;;;5014757;28;20058;-83
2022/02/18 07:54:56;;;;;;;24.25;4.72;;;8.30;99.90;;;;;;5014153;28;20437;-83
2022/02/18 07:57:23;;;;;;;21.10;4.50;;;8.30;99.90;;;;;;4997463;28;20061;-83
2022/02/18 07:59:49;;;;;;;20.70;4.00;;;8.40;99.90;;;;;;5014539;28;20034;-85
2022/02/18 08:02:15;;;;;;;24.02;6.07;;;8.40;99.90;;;;;;5013053;28;20069;-84
2022/02/18 08:04:40;;;;;;;19.75;3.92;;;8.40;99.90;;;;;;5013558;28;20395;-84
2022/02/18 08:07:06;;;;;;;20.33;3.55;;;8.40;99.90;;;;;;4995374;28;20030;-86
2022/02/18 08:09:33;;;;;;;18.10;3.83;;;8.40;99.90;;;;;;5014962;28;20034;-83
2022/02/18 08:11:59;;;;;;;21.55;4.18;;;8.50;99.90;;;;;;4998924;28;20033;-83
2022/02/18 08:14:25;;;;;;;18.55;3.90;;;8.60;99.90;;;;;;5014526;28;20034;-83
2022/02/18 08:16:52;;;;;;;23.58;4.70;;;8.50;99.90;;;;;;5012101;28;20048;-84
2022/02/18 08:19:20;;;;;;;24.70;4.90;;;8.50;99.90;;;;;;4993461;28;20094;-83
2022/02/18 08:21:49;;;;;;;20.73;3.60;;;8.60;99.90;;;;;;4977291;28;20050;-83
2022/02/18 08:24:19;;;;;;;19.08;4.15;;;8.60;99.90;;;;;;4994425;28;20038;-83
2022/02/18 08:26:49;;;;;;;20.50;3.55;;;8.70;99.90;;;;;;4962038;28;20061;-84
2022/02/18 08:29:22;;;;;;;20.80;3.80;;;8.70;99.90;;;;;;5002911;28;20033;-84
2022/02/18 08:31:49;;;;;;;21.05;4.68;;;8.80;99.90;;;;;;4993591;28;20386;-84
2022/02/18 08:34:15;;;;;;;15.48;3.70;;;8.80;99.90;;;;;;4980118;28;20485;-84
2022/02/18 08:36:40;;;;;;;19.17;3.58;;;8.80;99.90;;;;;;5011154;28;20030;-84
2022/02/18 08:39:08;;;;;;;22.88;4.18;;;8.80;99.90;;;;;;4995993;28;20377;-84
2022/02/18 08:41:35;;;;;;;26.98;4.28;;;8.80;99.90;;;;;;4991552;28;20025;-84
2022/02/18 08:44:01;;;;;;;21.65;4.07;;;8.80;99.90;;;;;;5022794;28;20062;-84
2022/02/18 08:46:28;;;;;;;21.27;3.80;;;8.90;99.90;;;;;;4990516;28;20045;-84
2022/02/18 08:48:54;;;;;;;20.77;3.88;;;8.90;99.90;;;;;;5011311;28;20038;-84
2022/02/18 08:51:20;;;;;;;20.02;4.03;;;8.90;99.90;;;;;;5003895;28;20129;-83
2022/02/18 08:53:45;;;;;;;26.15;4.90;;;9.00;99.90;;;;;;5022214;28;20068;-84
2022/02/18 08:56:12;;;;;;;16.58;4.13;;;9.00;99.90;;;;;;5008045;28;20038;-85
2022/02/18 08:58:38;;;;;;;25.27;4.50;;;9.10;99.90;;;;;;5021936;28;20421;-84
2022/02/18 09:01:03;;;;;;;21.23;3.95;;;9.10;99.90;;;;;;5012186;28;20569;-83
2022/02/18 09:03:30;;;;;;;18.83;4.25;;;9.10;99.90;;;;;;5012452;28;20061;-84
2022/02/18 09:05:56;;;;;;;14.27;3.78;;;9.10;99.90;;;;;;5012781;28;20037;-84
2022/02/18 09:08:24;;;;;;;17.15;4.07;;;9.20;99.90;;;;;;5012350;28;20390;-84
2022/02/18 09:10:52;;;;;;;17.75;4.18;;;9.20;99.90;;;;;;5012132;28;20030;-86
2022/02/18 09:13:20;;;;;;;19.20;3.88;;;9.30;99.90;;;;;;4996566;28;20026;-84
2022/02/18 09:15:46;;;;;;;16.75;4.00;;;9.30;99.90;;;;;;5016189;28;20041;-84
2022/02/18 09:18:12;;;;;;;16.27;3.70;;;9.40;99.90;;;;;;5016060;28;20038;-85
2022/02/18 09:20:37;;;;;;;14.93;3.75;;;9.50;99.90;;;;;;5017396;28;20037;-84
2022/02/18 09:23:03;;;;;;;15.45;4.25;;;9.50;99.90;;;;;;4999496;28;20425;-84
2022/02/18 09:25:29;;;;;;;13.75;3.85;;;9.60;99.90;;;;;;4997966;28;20037;-84
2022/02/18 09:27:55;;;;;;;14.73;4.25;;;9.60;99.90;;;;;;5015722;28;20048;-84
2022/02/18 09:30:21;;;;;;;12.25;4.55;;;9.70;99.90;;;;;;4983202;28;20033;-85
2022/02/18 09:32:46;;;;;;;13.05;3.60;;;9.80;99.90;;;;;;5016441;28;20026;-85
2022/02/18 09:35:12;;;;;;;10.20;2.92;;;9.90;99.90;;;;;;4998940;28;20038;-85
2022/02/18 09:37:38;;;;;;;9.77;3.03;;;10.00;99.90;;;;;;4999684;28;20466;-84
2022/02/18 09:40:06;;;;;;;13.85;2.97;;;10.00;99.90;;;;;;4999289;28;20454;-84
2022/02/18 09:42:33;;;;;;;8.63;2.72;;;10.00;99.90;;;;;;5012705;28;20030;-83
2022/02/18 09:44:59;;;;;;;7.47;2.90;;;10.10;99.90;;;;;;5004544;28;20463;-84
2022/02/18 09:47:26;;;;;;;12.70;3.45;;;10.10;99.90;;;;;;4995301;28;20394;-84
2022/02/18 09:49:53;;;;;;;8.27;2.97;;;10.20;99.90;;;;;;5014281;28;20034;-84
2022/02/18 09:52:19;;;;;;;10.45;3.47;;;10.30;99.90;;;;;;5010065;28;20062;-84
2022/02/18 09:54:46;;;;;;;7.03;2.85;;;10.40;99.90;;;;;;5015298;28;20026;-85
2022/02/18 09:57:14;;;;;;;9.10;3.03;;;10.30;99.90;;;;;;4982676;28;20088;-86
2022/02/18 09:59:39;;;;;;;7.05;2.63;;;10.40;99.90;;;;;;5014688;28;20031;-85
2022/02/18 10:02:06;;;;;;;10.57;3.38;;;10.40;99.90;;;;;;4991937;28;20034;-87
2022/02/18 10:04:32;;;;;;;8.00;2.80;;;10.50;99.90;;;;;;4979696;28;20382;-85
2022/02/18 10:07:02;;;;;;;10.15;3.53;;;10.50;99.90;;;;;;4995329;28;20374;-85
2022/02/18 10:09:41;;;;;;;11.73;2.75;;;10.50;99.90;;;;;;4996936;28;20030;-85
2022/02/18 10:12:09;;;;;;;7.95;2.50;;;10.60;99.90;;;;;;4995708;28;20030;-85
2022/02/18 10:14:56;;;;;;;5.10;2.33;;;10.60;99.90;;;;;;4995723;28;20026;-86
2022/02/18 10:17:23;;;;;;;4.00;2.17;;;10.60;99.90;;;;;;4996737;28;20035;-86
2022/02/18 10:19:53;;;;;;;5.47;2.20;;;10.70;99.90;;;;;;4995564;28;20494;-85
2022/02/18 10:22:37;;;;;;;8.10;2.83;;;10.70;99.90;;;;;;4995786;28;20032;-85
2022/02/18 10:25:07;;;;;;;8.23;2.15;;;10.80;99.90;;;;;;4996168;28;20030;-87
2022/02/18 10:27:44;;;;;;;5.35;2.28;;;10.80;99.90;;;;;;4995255;28;20478;-86
2022/02/18 10:30:37;;;;;;;6.10;2.20;;;10.90;99.90;;;;;;4995867;28;20050;-90
2022/02/18 10:33:22;;;;;;;5.32;2.25;;;10.90;99.90;;;;;;4996267;28;20085;-84
2022/02/18 10:35:49;;;;;;;4.03;1.90;;;10.90;99.90;;;;;;4980767;28;20030;-90
2022/02/18 10:38:16;;;;;;;4.10;1.90;;;11.00;99.90;;;;;;5015295;28;20040;-90
2022/02/18 10:40:49;;;;;;;4.90;2.15;;;11.00;99.90;;;;;;5015791;28;20037;-90
2022/02/18 10:43:18;;;;;;;6.55;2.70;;;11.10;99.90;;;;;;5015505;28;20029;-90
2022/02/18 10:46:01;;;;;;;3.92;1.90;;;11.10;99.90;;;;;;4999895;28;20034;-91
2022/02/18 10:48:32;;;;;;;3.60;1.88;;;11.10;99.90;;;;;;5015972;28;20065;-92
2022/02/18 10:51:05;;;;;;;4.13;2.08;;;11.10;99.90;;;;;;5015852;28;20029;-90
2022/02/18 10:53:51;;;;;;;4.05;1.90;;;11.20;99.90;;;;;;5013011;28;20042;-90
2022/02/18 10:56:21;;;;;;;3.90;1.70;;;11.20;99.90;;;;;;5009935;28;20046;-91
2022/02/18 10:58:49;;;;;;;2.92;1.67;;;11.20;99.90;;;;;;5010380;28;20073;-90
2022/02/18 11:01:16;;;;;;;4.70;1.48;;;11.20;99.90;;;;;;5015255;28;20034;-91
2022/02/18 11:03:46;;;;;;;3.55;1.63;;;11.30;99.90;;;;;;5015779;28;20033;-92
2022/02/18 11:06:17;;;;;;;4.47;1.60;;;11.30;99.90;;;;;;5016073;28;20022;-91
2022/02/18 11:08:54;;;;;;;4.20;1.52;;;11.30;99.90;;;;;;5016268;28;20125;-90
2022/02/18 11:11:21;;;;;;;2.63;1.75;;;11.40;99.90;;;;;;5017545;28;20026;-91
2022/02/18 11:13:49;;;;;;;2.72;1.40;;;11.40;99.90;;;;;;5000971;28;20124;-89
2022/02/18 11:16:19;;;;;;;3.85;1.40;;;11.40;99.90;;;;;;5000599;28;20038;-90
2022/02/18 11:18:46;;;;;;;4.55;1.55;;;11.50;99.90;;;;;;5018483;28;20042;-92
2022/02/18 11:21:13;;;;;;;1.48;1.17;;;11.60;99.90;;;;;;5025824;28;20038;-90
2022/02/18 11:23:42;;;;;;;2.67;1.35;;;11.60;99.90;;;;;;5002745;28;20033;-91
2022/02/18 11:26:14;;;;;;;1.65;1.00;;;11.60;99.90;;;;;;5016720;28;20057;-90
2022/02/18 11:28:42;;;;;;;2.20;1.15;;;11.70;99.90;;;;;;5016456;28;20187;-91
2022/02/18 11:31:17;;;;;;;3.33;1.17;;;11.70;99.90;;;;;;4994596;28;20026;-90
2022/02/18 11:34:15;;;;;;;3.47;0.98;;;11.80;99.90;;;;;;5010756;28;20057;-90
2022/02/18 11:37:02;;;;;;;1.85;0.80;;;11.80;99.90;;;;;;5010775;28;20031;-91
2022/02/18 11:39:58;;;;;;;1.50;0.88;;;11.80;99.90;;;;;;5010115;28;20483;-91
2022/02/18 11:42:41;;;;;;;1.98;0.88;;;11.90;99.90;;;;;;5005837;28;20030;-91
2022/02/18 11:45:12;;;;;;;5.35;1.10;;;11.90;99.90;;;;;;5005626;28;20022;-91
2022/02/18 11:47:38;;;;;;;1.27;0.90;;;12.00;99.90;;;;;;4996324;28;20053;-93
2022/02/18 11:50:27;;;;;;;1.55;0.57;;;12.00;99.90;;;;;;4996944;28;20472;-92
2022/02/18 11:52:54;;;;;;;3.80;0.98;;;12.00;99.90;;;;;;4997172;28;20022;-95
2022/02/18 11:55:38;;;;;;;1.90;0.70;;;12.10;99.90;;;;;;5000159;28;20463;-90
2022/02/18 11:58:03;;;;;;;1.25;0.70;;;12.20;99.90;;;;;;5010620;28;20062;-91
2022/02/18 12:00:45;;;;;;;1.25;0.90;;;12.20;99.90;;;;;;5004994;28;20873;-90
2022/02/18 12:03:24;;;;;;;1.58;0.82;;;12.20;99.90;;;;;;5014604;28;20120;-91
2022/02/18 12:06:12;;;;;;;0.70;0.65;;;12.30;99.90;;;;;;5008331;28;20076;-94
2022/02/18 12:08:41;;;;;;;2.58;1.25;;;12.30;99.90;;;;;;5006222;28;20085;-91
2022/02/18 12:11:16;;;;;;;1.98;0.90;;;12.30;99.90;;;;;;4995900;28;20034;-93
2022/02/18 12:14:04;;;;;;;4.47;1.23;;;12.40;99.90;;;;;;5015615;28;20057;-90
2022/02/18 12:16:31;;;;;;;2.72;0.90;;;12.40;99.90;;;;;;5031423;28;20031;-93
2022/02/18 12:19:14;;;;;;;1.92;0.82;;;12.50;99.90;;;;;;5016541;28;20022;-91
2022/02/18 12:22:00;;;;;;;2.58;0.85;;;12.50;99.90;;;;;;5029983;28;20046;-93
2022/02/18 12:24:43;;;;;;;1.90;0.85;;;12.50;99.90;;;;;;5036900;28;20034;-94
2022/02/18 12:27:26;;;;;;;3.42;0.80;;;12.50;99.90;;;;;;5033296;28;20085;-95
2022/02/18 12:29:52;;;;;;;1.55;0.93;;;12.50;99.90;;;;;;5023347;28;20048;-96
2022/02/18 12:32:18;;;;;;;0.98;0.70;;;12.60;99.90;;;;;;5021446;28;20026;-95
2022/02/18 12:34:45;;;;;;;1.13;0.70;;;12.60;99.90;;;;;;5021407;28;20128;-94
2022/02/18 12:37:13;;;;;;;2.22;0.52;;;12.60;99.90;;;;;;5052652;28;20115;-95
2022/02/18 12:39:40;;;;;;;0.80;0.80;;;12.70;99.90;;;;;;5052101;28;20486;-90
2022/02/18 12:42:19;;;;;;;1.90;0.80;;;12.70;99.90;;;;;;5051283;28;20029;-91
2022/02/18 12:44:52;;;;;;;3.65;0.98;;;12.70;99.90;;;;;;5049032;28;20061;-90
2022/02/18 12:47:23;;;;;;;1.23;0.95;;;12.70;99.90;;;;;;5048658;28;20064;-91
2022/02/18 12:49:52;;;;;;;2.75;0.95;;;12.80;99.90;;;;;;5048264;28;20029;-90